createdAt,value
2019-04-10T00:00:41.304Z,98.65
2019-04-10T00:03:08.271Z,98.80
2019-04-10T00:05:34.190Z,98.96
2019-04-10T00:08:00.001Z,99.32
2019-04-10T00:10:25.821Z,99.22
2019-04-10T00:12:52.000Z,99.34
2019-04-10T00:15:18.800Z,99.45
2019-04-10T00:17:45.133Z,99.70
2019-04-10T00:20:11.928Z,99.98
2019-04-10T00:22:38.710Z,100.00
2019-04-10T00:25:05.020Z,100.00
2019-04-10T00:27:31.119Z,100.00
2019-04-10T00:29:56.930Z,99.91
2019-04-10T00:32:23.724Z,99.97
2019-04-10T00:34:49.766Z,100.00
2019-04-10T00:37:23.863Z,100.00
2019-04-10T00:39:44.498Z,99.91
2019-04-10T00:42:10.508Z,99.62
2019-04-10T00:44:37.447Z,99.20
2019-04-10T00:47:04.421Z,99.23
2019-04-10T00:49:31.440Z,99.21
2019-04-10T00:51:57.558Z,99.33
2019-04-10T00:54:23.750Z,99.50
2019-04-10T00:56:50.607Z,99.59
2019-04-10T00:59:16.477Z,99.69
2019-04-10T01:01:43.637Z,99.84
2019-04-10T01:04:10.560Z,99.46
2019-04-10T01:06:36.487Z,99.12
2019-04-10T01:09:04.899Z,99.09
2019-04-10T01:11:30.813Z,99.01
2019-04-10T01:13:57.056Z,98.83
2019-04-10T01:16:23.244Z,98.71
2019-04-10T01:18:49.009Z,98.51
2019-04-10T01:21:14.848Z,99.22
2019-04-10T01:23:41.407Z,99.17
2019-04-10T01:26:07.564Z,99.06
2019-04-10T01:28:33.405Z,99.21
2019-04-10T01:30:59.214Z,99.24
2019-04-10T01:33:25.047Z,99.37
2019-04-10T01:35:54.319Z,99.42
2019-04-10T01:38:20.848Z,99.58
2019-04-10T01:40:47.792Z,99.66
2019-04-10T01:43:17.543Z,99.60
2019-04-10T01:45:41.812Z,99.93
2019-04-10T01:48:07.978Z,100.00
2019-04-10T01:50:34.673Z,100.00
2019-04-10T01:53:01.569Z,100.00
2019-04-10T01:55:30.275Z,100.00
2019-04-10T01:57:56.805Z,100.00
2019-04-10T02:00:25.681Z,100.00
2019-04-10T02:02:52.071Z,100.00
2019-04-10T02:05:18.716Z,100.00
2019-04-10T02:07:48.692Z,100.00
2019-04-10T02:10:12.745Z,100.00
2019-04-10T02:12:38.937Z,100.00
2019-04-10T02:15:05.073Z,100.00
2019-04-10T02:17:30.895Z,100.00
2019-04-10T02:19:56.865Z,100.00
2019-04-10T02:22:22.971Z,100.00
2019-04-10T02:24:49.379Z,100.00
2019-04-10T02:27:16.247Z,100.00
2019-04-10T02:29:42.371Z,100.00
2019-04-10T02:32:08.181Z,100.00
2019-04-10T02:34:34.441Z,100.00
2019-04-10T02:37:00.713Z,100.00
2019-04-10T02:39:34.078Z,100.00
2019-04-10T02:41:56.047Z,100.00
2019-04-10T02:44:22.979Z,100.00
2019-04-10T02:46:49.763Z,100.00
2019-04-10T02:49:18.482Z,100.00
2019-04-10T02:51:45.328Z,100.00
2019-04-10T02:54:11.942Z,100.00
2019-04-10T02:56:39.197Z,100.00
2019-04-10T02:59:05.169Z,100.00
2019-04-10T03:01:31.626Z,100.00
2019-04-10T03:03:57.465Z,99.81
2019-04-10T03:06:23.658Z,99.71
2019-04-10T03:09:03.444Z,98.63
2019-04-10T03:11:19.577Z,99.37
2019-04-10T03:13:45.388Z,99.27
2019-04-10T03:16:13.995Z,99.37
2019-04-10T03:18:41.024Z,99.28
2019-04-10T03:21:07.302Z,99.05
2019-04-10T03:23:33.633Z,98.77
2019-04-10T03:25:59.742Z,98.78
2019-04-10T03:28:25.589Z,98.48
2019-04-10T03:30:53.937Z,98.55
2019-04-10T03:33:29.684Z,98.49
2019-04-10T03:35:54.915Z,98.56
2019-04-10T03:38:21.685Z,98.41
2019-04-10T03:40:48.021Z,98.16
2019-04-10T03:43:14.037Z,98.35
2019-04-10T03:45:41.010Z,98.45
2019-04-10T03:48:08.427Z,98.27
2019-04-10T03:50:34.317Z,98.12
2019-04-10T03:53:00.365Z,98.26
2019-04-10T03:55:27.104Z,98.74
2019-04-10T03:57:53.350Z,99.09
2019-04-10T04:00:20.954Z,99.25
2019-04-10T04:02:46.899Z,99.10
2019-04-10T04:05:12.997Z,99.25
2019-04-10T04:07:38.935Z,99.29
2019-04-10T04:10:05.142Z,99.34
2019-04-10T04:12:30.918Z,99.43
2019-04-10T04:14:57.052Z,99.48
2019-04-10T04:17:24.138Z,99.48
2019-04-10T04:19:50.471Z,99.45
2019-04-10T04:22:16.762Z,98.75
2019-04-10T04:24:46.117Z,98.88
2019-04-10T04:27:13.165Z,98.72
2019-04-10T04:29:39.236Z,98.58
2019-04-10T04:32:05.301Z,98.64
2019-04-10T04:34:34.704Z,98.56
2019-04-10T04:37:00.840Z,98.44
2019-04-10T04:39:30.518Z,98.28
2019-04-10T04:41:58.719Z,98.31
2019-04-10T04:44:24.680Z,98.58
2019-04-10T04:46:50.675Z,98.63
2019-04-10T04:49:16.518Z,98.73
2019-04-10T04:51:42.295Z,98.47
2019-04-10T04:54:08.696Z,98.38
2019-04-10T04:56:37.540Z,98.05
2019-04-10T04:59:03.667Z,98.01
2019-04-10T05:01:29.669Z,98.21
2019-04-10T05:03:55.587Z,98.56
2019-04-10T05:06:24.415Z,98.47
2019-04-10T05:08:50.662Z,98.20
2019-04-10T05:11:22.349Z,98.20
2019-04-10T05:13:48.985Z,98.21
2019-04-10T05:16:14.914Z,98.24
2019-04-10T05:18:40.746Z,98.50
2019-04-10T05:21:10.600Z,98.59
2019-04-10T05:23:36.808Z,98.48
2019-04-10T05:26:02.781Z,98.25
2019-04-10T05:28:29.969Z,98.28
2019-04-10T05:30:56.887Z,98.22
2019-04-10T05:33:22.734Z,98.10
2019-04-10T05:35:48.803Z,98.08
2019-04-10T05:38:15.040Z,97.62
2019-04-10T05:40:40.855Z,98.00
2019-04-10T05:43:11.553Z,97.97
2019-04-10T05:45:37.978Z,97.62
2019-04-10T05:48:07.135Z,97.48
2019-04-10T05:50:33.218Z,97.51
2019-04-10T05:53:00.075Z,97.38
2019-04-10T05:55:26.663Z,97.31
2019-04-10T05:57:55.254Z,96.70
2019-04-10T06:00:22.909Z,96.91
2019-04-10T06:02:48.898Z,97.46
2019-04-10T06:05:16.121Z,96.91
2019-04-10T06:07:42.039Z,97.96
2019-04-10T06:10:10.267Z,98.14
2019-04-10T06:12:36.153Z,97.88
2019-04-10T06:15:04.503Z,97.89
2019-04-10T06:17:30.340Z,97.76
2019-04-10T06:19:56.693Z,97.19
2019-04-10T06:22:22.902Z,97.19
2019-04-10T06:24:52.237Z,96.79
2019-04-10T06:27:18.522Z,96.42
2019-04-10T06:29:45.003Z,96.88
2019-04-10T06:32:11.966Z,97.00
2019-04-10T06:34:40.909Z,96.58
2019-04-10T06:37:08.012Z,96.22
2019-04-10T06:39:35.136Z,96.16
2019-04-10T06:42:02.373Z,96.21
2019-04-10T06:44:28.433Z,96.51
2019-04-10T06:46:55.010Z,95.99
2019-04-10T06:49:21.094Z,95.76
2019-04-10T06:51:49.991Z,95.80
2019-04-10T06:54:16.433Z,95.48
2019-04-10T06:56:43.026Z,94.92
2019-04-10T06:59:09.328Z,94.28
2019-04-10T07:01:45.603Z,94.37
2019-04-10T07:04:07.411Z,94.64
2019-04-10T07:06:47.234Z,95.05
2019-04-10T07:08:59.170Z,95.38
2019-04-10T07:11:29.172Z,94.78
2019-04-10T07:13:53.871Z,95.21
2019-04-10T07:16:20.594Z,95.15
2019-04-10T07:18:49.013Z,94.87
2019-04-10T07:21:14.741Z,94.19
2019-04-10T07:23:40.788Z,94.30
2019-04-10T07:26:06.668Z,94.87
2019-04-10T07:28:33.547Z,94.82
2019-04-10T07:31:04.990Z,94.63
2019-04-10T07:33:28.791Z,94.27
2019-04-10T07:35:56.528Z,93.65
2019-04-10T07:38:22.749Z,93.02
2019-04-10T07:40:49.136Z,92.71
2019-04-10T07:43:15.267Z,93.17
2019-04-10T07:45:41.162Z,92.94
2019-04-10T07:48:10.782Z,92.52
2019-04-10T07:50:37.131Z,92.56
2019-04-10T07:53:03.269Z,91.88
2019-04-10T07:55:29.357Z,91.32
2019-04-10T07:57:55.409Z,91.71
2019-04-10T08:00:25.265Z,90.76
2019-04-10T08:02:51.586Z,90.54
2019-04-10T08:05:17.436Z,91.33
2019-04-10T08:07:43.246Z,91.13
2019-04-10T08:10:12.132Z,91.91
2019-04-10T08:12:46.036Z,92.49
2019-04-10T08:15:06.950Z,91.61
2019-04-10T08:17:32.864Z,92.32
2019-04-10T08:20:01.764Z,91.69
2019-04-10T08:22:28.687Z,91.67
2019-04-10T08:24:58.020Z,91.78
2019-04-10T08:27:23.883Z,91.61
2019-04-10T08:29:50.615Z,90.48
2019-04-10T08:32:16.779Z,89.54
2019-04-10T08:34:42.840Z,89.58
2019-04-10T08:37:08.755Z,90.37
2019-04-10T08:39:41.217Z,90.58
2019-04-10T08:42:03.422Z,89.85
2019-04-10T08:44:29.886Z,91.11
2019-04-10T08:47:00.111Z,90.62
2019-04-10T08:49:25.950Z,90.58
2019-04-10T08:51:52.196Z,90.09
2019-04-10T08:54:18.504Z,90.20
2019-04-10T08:56:46.978Z,89.23
2019-04-10T08:59:13.784Z,89.05
2019-04-10T09:01:43.010Z,88.61
2019-04-10T09:04:09.046Z,87.97
2019-04-10T09:06:35.630Z,88.63
2019-04-10T09:09:01.462Z,88.06
2019-04-10T09:11:29.726Z,88.78
2019-04-10T09:13:55.028Z,88.41
2019-04-10T09:16:20.821Z,89.57
2019-04-10T09:18:49.537Z,88.97
2019-04-10T09:21:15.676Z,88.25
2019-04-10T09:23:48.270Z,88.47
2019-04-10T09:26:09.214Z,89.29
2019-04-10T09:28:36.701Z,88.69
2019-04-10T09:31:02.872Z,88.64
2019-04-10T09:33:32.325Z,89.07
2019-04-10T09:35:58.668Z,87.93
2019-04-10T09:38:26.456Z,87.72
2019-04-10T09:40:53.284Z,88.14
2019-04-10T09:43:19.359Z,88.98
2019-04-10T09:45:45.937Z,88.82
2019-04-10T09:48:12.803Z,88.70
2019-04-10T09:50:39.588Z,89.41
2019-04-10T09:53:05.725Z,89.45
2019-04-10T09:55:34.353Z,88.83
2019-04-10T09:58:00.263Z,89.31
2019-04-10T10:00:29.948Z,87.98
2019-04-10T10:02:56.080Z,89.23
2019-04-10T10:05:22.412Z,88.96
2019-04-10T10:07:48.722Z,88.45
2019-04-10T10:10:17.524Z,88.77
2019-04-10T10:12:43.316Z,89.32
2019-04-10T10:15:13.357Z,88.39
2019-04-10T10:17:39.343Z,88.32
2019-04-10T10:20:06.222Z,87.64
2019-04-10T10:22:34.037Z,87.39
2019-04-10T10:24:59.885Z,84.34
2019-04-10T10:27:26.792Z,86.17
2019-04-10T10:29:53.516Z,86.21
2019-04-10T10:32:21.290Z,85.39
2019-04-10T10:34:47.156Z,84.60
2019-04-10T10:37:12.966Z,85.89
2019-04-10T10:39:39.123Z,86.67
2019-04-10T10:42:07.834Z,85.67
2019-04-10T10:44:38.365Z,85.02
2019-04-10T10:47:04.303Z,84.95
2019-04-10T10:49:30.641Z,84.92
2019-04-10T10:51:57.276Z,85.37
2019-04-10T10:54:23.163Z,83.99
2019-04-10T10:56:48.964Z,83.97
2019-04-10T10:59:15.474Z,85.54
2019-04-10T11:01:42.142Z,85.61
2019-04-10T11:04:08.846Z,85.87
2019-04-10T11:06:35.065Z,84.66
2019-04-10T11:09:05.863Z,84.72
2019-04-10T11:11:32.570Z,84.37
2019-04-10T11:13:58.955Z,83.34
2019-04-10T11:16:25.112Z,82.10
2019-04-10T11:18:53.037Z,81.53
2019-04-10T11:21:18.921Z,82.61
2019-04-10T11:23:49.264Z,81.60
2019-04-10T11:26:20.233Z,80.73
2019-04-10T11:28:43.339Z,80.34
2019-04-10T11:31:09.442Z,81.29
2019-04-10T11:33:35.382Z,80.30
2019-04-10T11:36:01.588Z,80.10
2019-04-10T11:38:27.392Z,80.18
2019-04-10T11:40:57.295Z,78.79
2019-04-10T11:43:21.610Z,79.85
2019-04-10T11:45:52.479Z,80.12
2019-04-10T11:48:18.318Z,78.67
2019-04-10T11:50:44.492Z,78.90
2019-04-10T11:53:10.508Z,78.19
2019-04-10T11:55:43.749Z,75.50
2019-04-10T11:58:07.841Z,75.00
2019-04-10T12:00:45.295Z,73.95
2019-04-10T12:03:08.738Z,73.89
2019-04-10T12:05:38.119Z,73.52
2019-04-10T12:08:27.956Z,75.03
2019-04-10T12:13:00.180Z,74.09
2019-04-10T12:15:26.213Z,73.27
2019-04-10T12:17:52.072Z,72.27
2019-04-10T12:20:18.726Z,72.33
2019-04-10T12:22:46.085Z,72.33
2019-04-10T12:25:14.451Z,72.02
2019-04-10T12:27:41.182Z,69.40
2019-04-10T12:30:09.482Z,69.56
2019-04-10T12:32:35.271Z,69.60
2019-04-10T12:35:01.084Z,70.50
2019-04-10T12:37:27.742Z,70.23
2019-04-10T12:39:55.101Z,69.57
2019-04-10T12:42:21.860Z,67.78
2019-04-10T12:44:47.736Z,68.35
2019-04-10T12:47:13.792Z,67.33
2019-04-10T12:49:39.883Z,67.07
2019-04-10T12:52:06.013Z,67.27
2019-04-10T12:54:31.998Z,66.05
2019-04-10T12:56:58.791Z,66.35
2019-04-10T12:59:25.693Z,64.52
2019-04-10T13:01:51.804Z,61.84
2019-04-10T13:04:18.066Z,65.52
2019-04-10T13:06:44.277Z,63.86
2019-04-10T13:09:12.919Z,63.10
2019-04-10T13:11:38.515Z,63.81
2019-04-10T13:14:04.649Z,62.10
2019-04-10T13:16:30.481Z,62.23
2019-04-10T13:18:59.034Z,62.59
2019-04-10T13:21:24.842Z,62.56
2019-04-10T13:23:50.682Z,63.25
2019-04-10T13:26:17.631Z,61.01
2019-04-10T13:28:43.562Z,61.30
2019-04-10T13:31:09.408Z,60.84
2019-04-10T13:33:36.340Z,59.67
2019-04-10T13:36:05.488Z,60.97
2019-04-10T13:38:33.935Z,58.66
2019-04-10T13:40:59.756Z,59.12
2019-04-10T13:43:25.651Z,60.00
2019-04-10T13:45:54.705Z,59.50
2019-04-10T13:48:20.764Z,59.10
2019-04-10T13:50:50.756Z,60.25
2019-04-10T13:53:17.526Z,60.62
2019-04-10T13:55:44.431Z,60.95
2019-04-10T13:58:10.806Z,61.47
2019-04-10T14:00:40.590Z,59.69
2019-04-10T14:03:06.618Z,60.30
2019-04-10T14:05:34.030Z,60.93
2019-04-10T14:07:59.981Z,61.65
2019-04-10T14:10:27.941Z,61.91
2019-04-10T14:12:53.761Z,62.19
2019-04-10T14:15:20.221Z,61.55
2019-04-10T14:17:46.178Z,61.08
2019-04-10T14:20:15.163Z,61.62
2019-04-10T14:22:43.886Z,61.13
2019-04-10T14:25:15.593Z,61.87
2019-04-10T14:27:42.581Z,61.24
2019-04-10T14:30:19.298Z,62.55
2019-04-10T14:32:45.356Z,62.60
2019-04-10T14:35:11.472Z,63.29
2019-04-10T14:37:37.926Z,62.11
2019-04-10T14:40:06.789Z,62.81
2019-04-10T14:42:32.878Z,62.08
2019-04-10T14:44:59.289Z,62.11
2019-04-10T14:47:25.604Z,61.39
2019-04-10T14:49:53.660Z,63.61
2019-04-10T14:52:19.433Z,63.27
2019-04-10T14:54:46.056Z,62.27
2019-04-10T14:57:12.738Z,63.46
2019-04-10T14:59:38.677Z,63.34
2019-04-10T15:02:06.705Z,63.24
2019-04-10T15:04:33.099Z,63.12
2019-04-10T15:06:59.028Z,62.50
2019-04-10T15:09:26.248Z,63.59
2019-04-10T15:11:53.210Z,63.50
2019-04-10T15:14:19.428Z,63.30
2019-04-10T15:16:54.443Z,63.28
2019-04-10T15:19:13.194Z,63.16
2019-04-10T15:21:39.013Z,63.46
2019-04-10T15:24:04.837Z,63.18
2019-04-10T15:26:30.656Z,63.68
2019-04-10T15:28:56.466Z,62.02
2019-04-10T15:31:24.923Z,62.57
2019-04-10T15:33:50.202Z,61.28
2019-04-10T15:36:16.250Z,60.38
2019-04-10T15:38:42.289Z,61.40
2019-04-10T15:41:08.495Z,60.39
2019-04-10T15:43:35.108Z,60.67
2019-04-10T15:46:00.892Z,61.82
2019-04-10T15:48:27.186Z,59.52
2019-04-10T15:50:53.860Z,61.08
2019-04-10T15:53:20.209Z,59.76
2019-04-10T15:55:46.107Z,59.26
2019-04-10T15:58:12.000Z,59.46
2019-04-10T16:00:38.105Z,58.99
2019-04-10T16:03:07.215Z,59.63
2019-04-10T16:05:33.441Z,60.75
2019-04-10T16:08:02.987Z,59.79
2019-04-10T16:10:30.819Z,59.57
2019-04-10T16:13:01.289Z,59.28
2019-04-10T16:15:29.227Z,59.84
2019-04-10T16:17:56.934Z,60.41
2019-04-10T16:20:25.249Z,60.07
2019-04-10T16:22:56.711Z,58.69
2019-04-10T16:25:25.597Z,59.65
2019-04-10T16:27:51.756Z,59.79
2019-04-10T16:30:19.460Z,59.92
2019-04-10T16:32:45.266Z,59.63
2019-04-10T16:35:13.598Z,58.88
2019-04-10T16:37:39.713Z,58.41
2019-04-10T16:40:08.478Z,59.10
2019-04-10T16:42:34.837Z,60.48
2019-04-10T16:45:01.770Z,59.75
2019-04-10T16:47:28.268Z,59.40
2019-04-10T16:49:55.174Z,60.05
2019-04-10T16:52:21.139Z,58.97
2019-04-10T16:54:51.479Z,59.87
2019-04-10T16:57:18.447Z,58.91
2019-04-10T16:59:44.614Z,60.52
2019-04-10T17:02:11.374Z,61.22
2019-04-10T17:04:37.220Z,60.32
2019-04-10T17:07:03.058Z,60.45
2019-04-10T17:09:29.047Z,60.94
2019-04-10T17:11:56.360Z,60.60
2019-04-10T17:14:23.687Z,60.36
2019-04-10T17:16:50.306Z,60.66
2019-04-10T17:19:16.140Z,60.61
2019-04-10T17:21:42.546Z,60.74
2019-04-10T17:24:09.201Z,60.85
2019-04-10T17:26:35.370Z,61.60
2019-04-10T17:29:01.400Z,61.84
2019-04-10T17:31:27.200Z,61.57
2019-04-10T17:33:54.452Z,62.60
2019-04-10T17:36:20.997Z,63.12
2019-04-10T17:38:46.895Z,63.39
2019-04-10T17:41:12.699Z,63.09
2019-04-10T17:43:38.496Z,62.49
2019-04-10T17:46:04.279Z,62.55
2019-04-10T17:48:31.049Z,62.65
2019-04-10T17:50:57.470Z,63.30
2019-04-10T17:53:23.357Z,62.63
2019-04-10T17:55:49.682Z,63.46
2019-04-10T17:58:19.198Z,64.96
2019-04-10T18:00:51.823Z,64.57
2019-04-10T18:03:18.925Z,64.84
2019-04-10T18:05:45.201Z,63.96
2019-04-10T18:08:11.005Z,65.17
2019-04-10T18:10:44.684Z,64.33
2019-04-10T18:13:05.256Z,64.56
2019-04-10T18:15:32.332Z,65.51
2019-04-10T18:17:59.607Z,64.15
2019-04-10T18:20:26.258Z,64.95
2019-04-10T18:22:53.324Z,65.62
2019-04-10T18:25:20.176Z,64.55
2019-04-10T18:27:46.895Z,65.01
2019-04-10T18:30:14.056Z,65.36
2019-04-10T18:32:40.145Z,65.48
2019-04-10T18:35:06.747Z,65.91
2019-04-10T18:37:32.896Z,65.41
2019-04-10T18:39:59.060Z,66.43
2019-04-10T18:42:26.695Z,66.35
2019-04-10T18:44:53.262Z,66.67
2019-04-10T18:47:19.381Z,67.55
2019-04-10T18:49:48.552Z,67.58
2019-04-10T18:52:15.069Z,66.28
2019-04-10T18:54:41.511Z,67.77
2019-04-10T18:57:07.444Z,69.05
2019-04-10T18:59:35.131Z,69.20
2019-04-10T19:02:12.279Z,69.60
2019-04-10T19:04:49.577Z,70.21
2019-04-10T19:07:15.428Z,70.77
2019-04-10T19:09:41.223Z,69.61
2019-04-10T19:12:07.059Z,69.51
2019-04-10T19:14:36.183Z,69.52
2019-04-10T19:17:00.568Z,70.04
2019-04-10T19:19:26.370Z,70.34
2019-04-10T19:21:52.158Z,69.89
2019-04-10T19:24:19.697Z,70.29
2019-04-10T19:26:45.550Z,69.40
2019-04-10T19:29:11.373Z,68.62
2019-04-10T19:31:40.271Z,69.25
2019-04-10T19:34:07.282Z,68.82
2019-04-10T19:36:34.298Z,69.34
2019-04-10T19:39:00.309Z,68.90
2019-04-10T19:41:32.857Z,67.69
2019-04-10T19:43:54.808Z,68.35
2019-04-10T19:46:21.562Z,69.12
2019-04-10T19:48:50.232Z,66.68
2019-04-10T19:51:16.381Z,67.01
2019-04-10T19:53:42.286Z,67.17
2019-04-10T19:56:09.360Z,66.41
2019-04-10T19:58:36.495Z,66.52
2019-04-10T20:01:05.110Z,66.68
2019-04-10T20:03:32.074Z,67.75
2019-04-10T20:05:57.952Z,68.41
2019-04-10T20:08:24.126Z,68.20
2019-04-10T20:10:49.953Z,68.40
2019-04-10T20:13:16.572Z,67.45
2019-04-10T20:15:42.679Z,68.36
2019-04-10T20:18:08.931Z,68.82
2019-04-10T20:20:35.232Z,69.66
2019-04-10T20:23:02.455Z,69.96
2019-04-10T20:25:28.447Z,70.03
2019-04-10T20:27:54.246Z,71.09
2019-04-10T20:30:22.019Z,71.90
2019-04-10T20:32:47.824Z,73.11
2019-04-10T20:35:13.640Z,73.76
2019-04-10T20:37:39.750Z,73.88
2019-04-10T20:40:05.679Z,73.61
2019-04-10T20:42:32.165Z,72.11
2019-04-10T20:44:58.878Z,71.45
2019-04-10T20:47:25.051Z,70.40
2019-04-10T20:49:51.181Z,70.47
2019-04-10T20:52:17.933Z,71.50
2019-04-10T20:54:44.772Z,71.37
2019-04-10T20:57:11.050Z,72.50
2019-04-10T20:59:37.174Z,72.18
2019-04-10T21:02:04.191Z,72.39
2019-04-10T21:04:30.015Z,71.30
2019-04-10T21:06:58.670Z,70.27
2019-04-10T21:09:25.784Z,70.41
2019-04-10T21:12:02.224Z,70.38
2019-04-10T21:14:23.218Z,69.02
2019-04-10T21:16:49.804Z,68.44
2019-04-10T21:19:16.436Z,68.95
2019-04-10T21:21:43.438Z,68.52
2019-04-10T21:24:09.343Z,67.75
2019-04-10T21:26:35.150Z,67.19
2019-04-10T21:29:02.432Z,67.68
2019-04-10T21:31:40.572Z,67.64
2019-04-10T21:34:14.347Z,67.83
2019-04-10T21:36:41.397Z,67.00
2019-04-10T21:39:07.484Z,67.28
2019-04-10T21:41:34.525Z,67.76
2019-04-10T21:44:02.270Z,67.69
2019-04-10T21:46:28.455Z,67.77
2019-04-10T21:48:55.145Z,67.85
2019-04-10T21:51:21.181Z,67.90
2019-04-10T21:53:47.301Z,67.78
2019-04-10T21:56:13.441Z,67.74
2019-04-10T21:58:39.282Z,68.18
2019-04-10T22:01:06.106Z,67.65
2019-04-10T22:03:32.023Z,68.15
2019-04-10T22:06:16.182Z,67.82
2019-04-10T22:08:50.058Z,67.86
2019-04-10T22:11:17.000Z,68.15
2019-04-10T22:13:42.985Z,67.23
2019-04-10T22:16:11.413Z,66.95
2019-04-10T22:18:37.647Z,66.79
2019-04-10T22:21:04.112Z,66.42
2019-04-10T22:23:30.203Z,67.32
2019-04-10T22:25:56.349Z,67.61
2019-04-10T22:28:23.247Z,67.51
2019-04-10T22:30:50.350Z,68.30
2019-04-10T22:33:16.430Z,68.57
2019-04-10T22:35:42.389Z,68.59
2019-04-10T22:38:13.130Z,69.15
2019-04-10T22:40:40.043Z,69.16
2019-04-10T22:43:07.410Z,69.27
2019-04-10T22:45:33.332Z,69.14
2019-04-10T22:48:00.552Z,69.31
2019-04-10T22:50:27.528Z,69.27
2019-04-10T22:52:54.881Z,69.58
2019-04-10T22:55:21.814Z,69.32
2019-04-10T22:57:48.469Z,68.60
2019-04-10T23:00:16.770Z,67.62
2019-04-10T23:02:42.883Z,66.96
2019-04-10T23:05:09.835Z,66.36
2019-04-10T23:07:35.712Z,66.24
2019-04-10T23:10:02.594Z,66.24
2019-04-10T23:12:28.527Z,66.17
2019-04-10T23:14:55.385Z,66.55
2019-04-10T23:17:21.224Z,66.27
2019-04-10T23:19:47.102Z,66.21
2019-04-10T23:22:13.435Z,66.13
2019-04-10T23:24:40.099Z,66.14
2019-04-10T23:27:06.014Z,65.77
2019-04-10T23:29:32.642Z,65.90
2019-04-10T23:31:58.835Z,66.11
2019-04-10T23:34:25.152Z,66.32
2019-04-10T23:36:50.910Z,66.36
2019-04-10T23:39:16.995Z,66.10
2019-04-10T23:41:42.793Z,66.89
2019-04-10T23:44:09.006Z,66.19
2019-04-10T23:46:34.805Z,66.60
2019-04-10T23:49:01.335Z,66.27
2019-04-10T23:51:29.365Z,67.21
2019-04-10T23:53:55.566Z,66.21
2019-04-10T23:56:21.837Z,66.82
2019-04-10T23:58:49.077Z,67.22
